LBT6148 DTTJ-LPPT
Flight info
| Callsign | LBT6148 |
|---|---|
| Flight time | 2h 35m |
| Altitude | 34000 |
| Route | TINAP1A TINAP A856 KIRAS UZ147 DIMAO UG6 ANB UM134 LUXUR/N0457F350 M134 VLC/N0372F130 N733 CJN N975 CCS DCT TROIA |
| Aircraft | A320/M-SDE3FGHIRWY/LB1 |
Departure
| Time | 2026-04-28 19:58 |
|---|---|
| Airport | Djerba Zarzis International Airport (DTTJ) |
Arrival
| Time | 2026-04-28 22:34 |
|---|---|
| Airport | Lisbon Humberto Delgado Airport (LPPT) |
| Time | Latitude | Longitude | Altitude | Speed | Heading |
|---|---|---|---|---|---|
| 2026-04-28 19:45 | 33.87246 | 10.77387 | 24 ft | 0 kts | 128° |
| 2026-04-28 19:52 | 33.87253 | 10.77378 | 22 ft | 4 kts | 130° |
| 2026-04-28 19:53 | 33.87271 | 10.77353 | 22 ft | 4 kts | 134° |
| 2026-04-28 19:53 | 33.87290 | 10.77330 | 22 ft | 4 kts | 133° |
| 2026-04-28 19:53 | 33.87305 | 10.77310 | 23 ft | 4 kts | 123° |
| 2026-04-28 19:53 | 33.87312 | 10.77284 | 24 ft | 4 kts | 65° |
| 2026-04-28 19:54 | 33.87302 | 10.77268 | 25 ft | 4 kts | 36° |
| 2026-04-28 19:54 | 33.87293 | 10.77260 | 24 ft | 0 kts | 30° |
| 2026-04-28 19:56 | 33.87314 | 10.77270 | 22 ft | 10 kts | 14° |
| 2026-04-28 19:56 | 33.87366 | 10.77172 | 21 ft | 23 kts | 272° |
| 2026-04-28 19:56 | 33.87359 | 10.76931 | 21 ft | 31 kts | 268° |
| 2026-04-28 19:56 | 33.87354 | 10.76668 | 20 ft | 32 kts | 268° |
| 2026-04-28 19:57 | 33.87345 | 10.76401 | 19 ft | 32 kts | 268° |
| 2026-04-28 19:57 | 33.87340 | 10.76130 | 18 ft | 33 kts | 275° |
| 2026-04-28 19:57 | 33.87438 | 10.76046 | 18 ft | 24 kts | 2° |
| 2026-04-28 19:57 | 33.87505 | 10.76252 | 19 ft | 45 kts | 88° |
| 2026-04-28 19:58 | 33.87524 | 10.76906 | 19 ft | 109 kts | 88° |
| 2026-04-28 19:58 | 33.87554 | 10.78008 | 25 ft | 156 kts | 88° |
| 2026-04-28 19:58 | 33.87567 | 10.79376 | 538 ft | 160 kts | 90° |
| 2026-04-28 19:58 | 33.87586 | 10.80789 | 935 ft | 180 kts | 89° |
| 2026-04-28 19:59 | 33.87480 | 10.82375 | 1178 ft | 202 kts | 112° |
| 2026-04-28 19:59 | 33.86557 | 10.83607 | 1871 ft | 194 kts | 161° |
| 2026-04-28 19:59 | 33.85326 | 10.83794 | 2855 ft | 177 kts | 184° |
| 2026-04-28 19:59 | 33.84111 | 10.83268 | 3087 ft | 200 kts | 221° |
| 2026-04-28 20:00 | 33.83328 | 10.81797 | 3323 ft | 224 kts | 252° |
| 2026-04-28 20:00 | 33.83303 | 10.79843 | 3545 ft | 250 kts | 288° |
| 2026-04-28 20:00 | 33.84330 | 10.78078 | 3950 ft | 268 kts | 317° |
| 2026-04-28 20:00 | 33.85789 | 10.76651 | 4685 ft | 272 kts | 320° |
| 2026-04-28 20:01 | 33.87311 | 10.75295 | 5461 ft | 273 kts | 321° |
| 2026-04-28 20:01 | 33.88851 | 10.73956 | 6215 ft | 275 kts | 322° |
| 2026-04-28 20:01 | 33.90407 | 10.72599 | 6910 ft | 277 kts | 322° |
| 2026-04-28 20:01 | 33.91971 | 10.71220 | 7602 ft | 280 kts | 322° |
| 2026-04-28 20:02 | 33.93547 | 10.69815 | 8296 ft | 283 kts | 322° |
| 2026-04-28 20:02 | 33.95133 | 10.68386 | 8997 ft | 286 kts | 322° |
| 2026-04-28 20:02 | 33.96729 | 10.66941 | 9700 ft | 289 kts | 322° |
| 2026-04-28 20:02 | 33.98354 | 10.65466 | 10189 ft | 301 kts | 322° |
| 2026-04-28 20:03 | 34.00090 | 10.63888 | 10315 ft | 324 kts | 322° |
| 2026-04-28 20:03 | 34.01919 | 10.62220 | 10436 ft | 345 kts | 322° |
| 2026-04-28 20:03 | 34.03889 | 10.60421 | 10556 ft | 365 kts | 321° |
| 2026-04-28 20:03 | 34.05974 | 10.58514 | 10893 ft | 376 kts | 321° |
| 2026-04-28 20:04 | 34.08070 | 10.56600 | 11436 ft | 380 kts | 321° |
| 2026-04-28 20:04 | 34.10162 | 10.54700 | 11990 ft | 383 kts | 321° |
| 2026-04-28 20:04 | 34.12300 | 10.52760 | 12590 ft | 386 kts | 321° |
| 2026-04-28 20:04 | 34.14454 | 10.50798 | 13145 ft | 389 kts | 321° |
| 2026-04-28 20:05 | 34.16618 | 10.48819 | 13723 ft | 392 kts | 321° |
| 2026-04-28 20:05 | 34.18795 | 10.46826 | 14230 ft | 394 kts | 321° |
| 2026-04-28 20:05 | 34.20990 | 10.44817 | 14718 ft | 396 kts | 321° |
| 2026-04-28 20:05 | 34.23192 | 10.42798 | 15200 ft | 398 kts | 321° |
| 2026-04-28 20:06 | 34.25404 | 10.40771 | 15688 ft | 400 kts | 321° |
| 2026-04-28 20:06 | 34.27625 | 10.38734 | 16172 ft | 402 kts | 321° |
| 2026-04-28 20:06 | 34.29860 | 10.36679 | 16662 ft | 404 kts | 320° |
| 2026-04-28 20:06 | 34.32102 | 10.34614 | 17131 ft | 406 kts | 320° |
| 2026-04-28 20:07 | 34.34354 | 10.32539 | 17597 ft | 408 kts | 320° |
| 2026-04-28 20:07 | 34.35854 | 10.31159 | 17904 ft | 409 kts | 320° |
| 2026-04-28 20:07 | 34.38898 | 10.28358 | 18473 ft | 412 kts | 320° |
| 2026-04-28 20:07 | 34.41153 | 10.26283 | 18862 ft | 414 kts | 320° |
| 2026-04-28 20:08 | 34.43448 | 10.24170 | 19250 ft | 415 kts | 320° |
| 2026-04-28 20:08 | 34.45753 | 10.22046 | 19635 ft | 417 kts | 320° |
| 2026-04-28 20:08 | 34.48065 | 10.19912 | 20007 ft | 419 kts | 319° |
| 2026-04-28 20:08 | 34.50388 | 10.17761 | 20367 ft | 421 kts | 319° |
| 2026-04-28 20:09 | 34.52722 | 10.15599 | 20724 ft | 423 kts | 319° |
| 2026-04-28 20:09 | 34.55069 | 10.13427 | 21077 ft | 425 kts | 319° |
| 2026-04-28 20:09 | 34.57429 | 10.11243 | 21416 ft | 427 kts | 319° |
| 2026-04-28 20:09 | 34.59793 | 10.09055 | 21768 ft | 429 kts | 319° |
| 2026-04-28 20:10 | 34.62175 | 10.06850 | 22107 ft | 430 kts | 319° |
| 2026-04-28 20:10 | 34.64560 | 10.04640 | 22438 ft | 432 kts | 319° |
| 2026-04-28 20:10 | 34.66954 | 10.02420 | 22762 ft | 434 kts | 319° |
| 2026-04-28 20:10 | 34.69367 | 10.00178 | 23086 ft | 436 kts | 319° |
| 2026-04-28 20:11 | 34.71783 | 9.97930 | 23418 ft | 438 kts | 319° |
| 2026-04-28 20:11 | 34.74210 | 9.95670 | 23703 ft | 440 kts | 319° |
| 2026-04-28 20:11 | 34.76645 | 9.93405 | 23957 ft | 441 kts | 319° |
| 2026-04-28 20:11 | 34.79090 | 9.91130 | 24227 ft | 443 kts | 318° |
| 2026-04-28 20:12 | 34.81511 | 9.88876 | 24474 ft | 444 kts | 318° |
| 2026-04-28 20:12 | 34.83964 | 9.86589 | 24712 ft | 445 kts | 318° |
| 2026-04-28 20:12 | 34.86429 | 9.84289 | 24956 ft | 447 kts | 318° |
| 2026-04-28 20:12 | 34.88099 | 9.82728 | 25110 ft | 448 kts | 318° |
| 2026-04-28 20:13 | 34.91384 | 9.79649 | 25401 ft | 451 kts | 318° |
| 2026-04-28 20:13 | 34.93875 | 9.77312 | 25616 ft | 452 kts | 318° |
| 2026-04-28 20:13 | 34.96373 | 9.74969 | 25860 ft | 453 kts | 318° |
| 2026-04-28 20:13 | 34.98877 | 9.72618 | 26088 ft | 455 kts | 318° |
| 2026-04-28 20:14 | 35.01388 | 9.70262 | 26339 ft | 455 kts | 318° |
| 2026-04-28 20:14 | 35.03899 | 9.67908 | 26664 ft | 454 kts | 318° |
| 2026-04-28 20:14 | 35.06399 | 9.65564 | 26983 ft | 453 kts | 318° |
| 2026-04-28 20:14 | 35.08895 | 9.63223 | 27327 ft | 452 kts | 318° |
| 2026-04-28 20:15 | 35.11381 | 9.60886 | 27675 ft | 450 kts | 318° |
| 2026-04-28 20:15 | 35.13855 | 9.58553 | 28025 ft | 449 kts | 317° |
| 2026-04-28 20:15 | 35.16298 | 9.56242 | 28344 ft | 448 kts | 317° |
| 2026-04-28 20:15 | 35.18799 | 9.53875 | 28673 ft | 447 kts | 317° |
| 2026-04-28 20:16 | 35.21223 | 9.51583 | 29010 ft | 446 kts | 317° |
| 2026-04-28 20:16 | 35.23674 | 9.49267 | 29348 ft | 445 kts | 317° |
| 2026-04-28 20:16 | 35.26124 | 9.46950 | 29682 ft | 444 kts | 317° |
| 2026-04-28 20:16 | 35.28567 | 9.44641 | 30021 ft | 443 kts | 317° |
| 2026-04-28 20:17 | 35.31003 | 9.42335 | 30283 ft | 443 kts | 317° |
| 2026-04-28 20:17 | 35.33439 | 9.40027 | 30548 ft | 442 kts | 317° |
| 2026-04-28 20:17 | 35.35872 | 9.37720 | 30833 ft | 441 kts | 317° |
| 2026-04-28 20:17 | 35.38296 | 9.35421 | 31108 ft | 440 kts | 317° |
| 2026-04-28 20:18 | 35.40713 | 9.33126 | 31404 ft | 439 kts | 316° |
| 2026-04-28 20:18 | 35.42305 | 9.31612 | 31594 ft | 438 kts | 316° |
| 2026-04-28 20:18 | 35.45518 | 9.28555 | 31952 ft | 436 kts | 316° |
| 2026-04-28 20:18 | 35.47912 | 9.26273 | 32225 ft | 435 kts | 316° |
| 2026-04-28 20:19 | 35.50297 | 9.23993 | 32496 ft | 434 kts | 316° |
| 2026-04-28 20:19 | 35.52678 | 9.21717 | 32766 ft | 433 kts | 316° |
| 2026-04-28 20:19 | 35.55056 | 9.19447 | 33031 ft | 433 kts | 316° |
| 2026-04-28 20:19 | 35.57431 | 9.17180 | 33300 ft | 432 kts | 316° |
| 2026-04-28 20:20 | 35.59807 | 9.14916 | 33568 ft | 431 kts | 316° |
| 2026-04-28 20:20 | 35.62171 | 9.12659 | 33834 ft | 430 kts | 316° |
| 2026-04-28 20:20 | 35.64528 | 9.10403 | 34010 ft | 430 kts | 315° |
| 2026-04-28 20:21 | 35.69230 | 9.05884 | 34041 ft | 433 kts | 316° |
| 2026-04-28 20:21 | 35.73984 | 9.01307 | 34039 ft | 437 kts | 316° |
| 2026-04-28 20:22 | 35.78822 | 8.96649 | 34038 ft | 445 kts | 316° |
| 2026-04-28 20:22 | 35.83712 | 8.91944 | 34032 ft | 446 kts | 316° |
| 2026-04-28 20:23 | 35.88607 | 8.87226 | 34032 ft | 446 kts | 316° |
| 2026-04-28 20:23 | 35.93494 | 8.82506 | 34034 ft | 446 kts | 316° |
| 2026-04-28 20:24 | 35.98384 | 8.77767 | 34020 ft | 447 kts | 316° |
| 2026-04-28 20:24 | 36.03275 | 8.73025 | 34018 ft | 448 kts | 316° |
| 2026-04-28 20:25 | 36.08181 | 8.68261 | 34004 ft | 449 kts | 317° |
| 2026-04-28 20:25 | 36.13071 | 8.63506 | 33992 ft | 450 kts | 317° |
| 2026-04-28 20:26 | 36.17999 | 8.58709 | 33988 ft | 452 kts | 317° |
| 2026-04-28 20:26 | 36.22938 | 8.53882 | 34001 ft | 452 kts | 317° |
| 2026-04-28 20:27 | 36.27886 | 8.49054 | 33993 ft | 453 kts | 317° |
| 2026-04-28 20:27 | 36.32835 | 8.44203 | 33998 ft | 453 kts | 317° |
| 2026-04-28 20:28 | 36.37783 | 8.39339 | 33997 ft | 454 kts | 317° |
| 2026-04-28 20:28 | 36.42476 | 8.34150 | 34009 ft | 449 kts | 310° |
| 2026-04-28 20:29 | 36.46826 | 8.28572 | 33997 ft | 450 kts | 310° |
| 2026-04-28 20:29 | 36.51181 | 8.22965 | 33974 ft | 452 kts | 310° |
| 2026-04-28 20:30 | 36.55526 | 8.17373 | 33960 ft | 453 kts | 310° |
| 2026-04-28 20:30 | 36.59906 | 8.11734 | 33945 ft | 454 kts | 310° |
| 2026-04-28 20:31 | 36.64292 | 8.06074 | 33928 ft | 454 kts | 310° |
| 2026-04-28 20:31 | 36.68664 | 8.00406 | 33907 ft | 454 kts | 310° |
| 2026-04-28 20:32 | 36.73039 | 7.94727 | 33905 ft | 454 kts | 310° |
| 2026-04-28 20:32 | 36.77424 | 7.89035 | 33872 ft | 455 kts | 310° |
| 2026-04-28 20:33 | 36.81755 | 7.83273 | 33875 ft | 453 kts | 304° |
| 2026-04-28 20:33 | 36.84864 | 7.76540 | 33872 ft | 446 kts | 289° |
| 2026-04-28 20:34 | 36.87196 | 7.69360 | 33887 ft | 447 kts | 289° |
| 2026-04-28 20:34 | 36.89543 | 7.62169 | 33896 ft | 447 kts | 289° |
| 2026-04-28 20:35 | 36.91889 | 7.54962 | 33906 ft | 448 kts | 289° |
| 2026-04-28 20:35 | 36.94213 | 7.47799 | 33931 ft | 448 kts | 289° |
| 2026-04-28 20:36 | 36.96537 | 7.40582 | 33927 ft | 448 kts | 289° |
| 2026-04-28 20:36 | 36.98859 | 7.33349 | 33937 ft | 448 kts | 289° |
| 2026-04-28 20:37 | 37.01184 | 7.26118 | 33939 ft | 448 kts | 289° |
| 2026-04-28 20:37 | 37.03513 | 7.18886 | 33926 ft | 448 kts | 289° |
| 2026-04-28 20:38 | 37.05836 | 7.11656 | 33936 ft | 447 kts | 289° |
| 2026-04-28 20:38 | 37.08139 | 7.04437 | 33932 ft | 446 kts | 289° |
| 2026-04-28 20:39 | 37.10439 | 6.97208 | 33927 ft | 446 kts | 288° |
| 2026-04-28 20:39 | 37.12732 | 6.89984 | 33922 ft | 446 kts | 288° |
| 2026-04-28 20:40 | 37.15021 | 6.82757 | 33918 ft | 446 kts | 288° |
| 2026-04-28 20:40 | 37.17289 | 6.75559 | 33914 ft | 447 kts | 288° |
| 2026-04-28 20:41 | 37.19581 | 6.68292 | 33911 ft | 448 kts | 288° |
| 2026-04-28 20:41 | 37.21864 | 6.61024 | 33902 ft | 448 kts | 288° |
| 2026-04-28 20:42 | 37.23778 | 6.54930 | 33905 ft | 448 kts | 288° |
| 2026-04-28 20:42 | 37.26054 | 6.47653 | 33901 ft | 448 kts | 288° |
| 2026-04-28 20:43 | 37.28329 | 6.40373 | 33914 ft | 448 kts | 289° |
| 2026-04-28 20:43 | 37.30587 | 6.33127 | 33910 ft | 448 kts | 288° |
| 2026-04-28 20:44 | 37.32844 | 6.25835 | 33921 ft | 447 kts | 288° |
| 2026-04-28 20:44 | 37.35099 | 6.18554 | 33919 ft | 447 kts | 288° |
| 2026-04-28 20:45 | 37.37351 | 6.11272 | 33912 ft | 447 kts | 288° |
| 2026-04-28 20:45 | 37.39601 | 6.03988 | 33925 ft | 446 kts | 288° |
| 2026-04-28 20:46 | 37.41840 | 5.96706 | 33928 ft | 445 kts | 288° |
| 2026-04-28 20:46 | 37.44067 | 5.89438 | 33921 ft | 445 kts | 288° |
| 2026-04-28 20:47 | 37.46283 | 5.82176 | 33911 ft | 444 kts | 288° |
| 2026-04-28 20:47 | 37.48484 | 5.74967 | 33907 ft | 444 kts | 288° |
| 2026-04-28 20:48 | 37.50688 | 5.67708 | 33918 ft | 444 kts | 288° |
| 2026-04-28 20:48 | 37.52891 | 5.60442 | 33916 ft | 443 kts | 288° |
| 2026-04-28 20:49 | 37.55086 | 5.53182 | 33917 ft | 443 kts | 288° |
| 2026-04-28 20:49 | 37.57272 | 5.45926 | 33911 ft | 442 kts | 288° |
| 2026-04-28 20:50 | 37.59454 | 5.38676 | 33924 ft | 442 kts | 288° |
| 2026-04-28 20:50 | 37.61639 | 5.31416 | 33929 ft | 442 kts | 287° |
| 2026-04-28 20:51 | 37.63814 | 5.24150 | 33913 ft | 443 kts | 287° |
| 2026-04-28 20:51 | 37.65989 | 5.16876 | 33914 ft | 443 kts | 287° |
| 2026-04-28 20:52 | 37.68155 | 5.09598 | 33915 ft | 443 kts | 287° |
| 2026-04-28 20:52 | 37.70305 | 5.02348 | 33900 ft | 443 kts | 287° |
| 2026-04-28 20:53 | 37.73700 | 4.91486 | 33899 ft | 444 kts | 289° |
| 2026-04-28 20:53 | 37.76124 | 4.84283 | 33889 ft | 445 kts | 289° |
| 2026-04-28 20:54 | 37.78520 | 4.77060 | 33886 ft | 446 kts | 289° |
| 2026-04-28 20:54 | 37.80874 | 4.69804 | 33888 ft | 446 kts | 288° |
| 2026-04-28 20:55 | 37.83222 | 4.62529 | 33894 ft | 447 kts | 288° |
| 2026-04-28 20:55 | 37.85568 | 4.55252 | 33899 ft | 447 kts | 289° |
| 2026-04-28 20:56 | 37.87919 | 4.47951 | 33906 ft | 448 kts | 289° |
| 2026-04-28 20:56 | 37.90245 | 4.40694 | 33897 ft | 448 kts | 289° |
| 2026-04-28 20:57 | 37.92586 | 4.33382 | 33894 ft | 448 kts | 289° |
| 2026-04-28 20:57 | 37.94932 | 4.26066 | 33892 ft | 448 kts | 289° |
| 2026-04-28 20:58 | 37.97274 | 4.18738 | 33901 ft | 448 kts | 288° |
| 2026-04-28 20:58 | 37.99609 | 4.11401 | 33887 ft | 449 kts | 288° |
| 2026-04-28 20:59 | 38.01942 | 4.04050 | 33880 ft | 450 kts | 288° |
| 2026-04-28 20:59 | 38.04277 | 3.96691 | 33883 ft | 450 kts | 288° |
| 2026-04-28 21:00 | 38.06602 | 3.89316 | 33885 ft | 450 kts | 288° |
| 2026-04-28 21:00 | 38.08920 | 3.81935 | 33885 ft | 450 kts | 288° |
| 2026-04-28 21:01 | 38.11239 | 3.74540 | 33885 ft | 451 kts | 288° |
| 2026-04-28 21:01 | 38.13562 | 3.67130 | 33893 ft | 452 kts | 288° |
| 2026-04-28 21:02 | 38.15890 | 3.59709 | 33901 ft | 452 kts | 288° |
| 2026-04-28 21:02 | 38.18209 | 3.52286 | 33901 ft | 452 kts | 288° |
| 2026-04-28 21:03 | 38.20516 | 3.44855 | 33902 ft | 452 kts | 288° |
| 2026-04-28 21:03 | 38.22798 | 3.37408 | 33901 ft | 452 kts | 287° |
| 2026-04-28 21:04 | 38.24985 | 3.29932 | 33897 ft | 451 kts | 287° |
| 2026-04-28 21:04 | 38.27141 | 3.22423 | 33900 ft | 452 kts | 287° |
| 2026-04-28 21:05 | 38.29335 | 3.14927 | 33911 ft | 453 kts | 290° |
| 2026-04-28 21:05 | 38.32049 | 3.07736 | 33904 ft | 454 kts | 292° |
| 2026-04-28 21:06 | 38.34800 | 3.00497 | 33905 ft | 454 kts | 292° |
| 2026-04-28 21:06 | 38.37548 | 2.93231 | 33896 ft | 455 kts | 292° |
| 2026-04-28 21:07 | 38.40296 | 2.85943 | 33894 ft | 456 kts | 292° |
| 2026-04-28 21:07 | 38.43046 | 2.78655 | 33895 ft | 457 kts | 292° |
| 2026-04-28 21:08 | 38.45798 | 2.71346 | 33906 ft | 457 kts | 292° |
| 2026-04-28 21:08 | 38.48546 | 2.64026 | 33911 ft | 457 kts | 292° |
| 2026-04-28 21:09 | 38.51294 | 2.56687 | 33900 ft | 458 kts | 292° |
| 2026-04-28 21:09 | 38.54031 | 2.49375 | 33900 ft | 459 kts | 292° |
| 2026-04-28 21:10 | 38.56870 | 2.42053 | 33898 ft | 460 kts | 294° |
| 2026-04-28 21:10 | 38.59778 | 2.34749 | 33900 ft | 461 kts | 294° |
| 2026-04-28 21:11 | 38.62672 | 2.27431 | 33926 ft | 461 kts | 293° |
| 2026-04-28 21:11 | 38.65544 | 2.20099 | 33916 ft | 461 kts | 293° |
| 2026-04-28 21:12 | 38.68421 | 2.12752 | 33915 ft | 462 kts | 293° |
| 2026-04-28 21:12 | 38.71296 | 2.05391 | 33913 ft | 462 kts | 293° |
| 2026-04-28 21:13 | 38.74162 | 1.98018 | 33912 ft | 462 kts | 293° |
| 2026-04-28 21:13 | 38.77006 | 1.90684 | 33927 ft | 462 kts | 293° |
| 2026-04-28 21:14 | 38.79884 | 1.83243 | 33923 ft | 463 kts | 294° |
| 2026-04-28 21:14 | 38.82720 | 1.75898 | 33922 ft | 463 kts | 294° |
| 2026-04-28 21:15 | 38.85571 | 1.68493 | 33929 ft | 463 kts | 294° |
| 2026-04-28 21:15 | 38.88423 | 1.61079 | 33928 ft | 463 kts | 294° |
| 2026-04-28 21:16 | 38.91274 | 1.53646 | 33920 ft | 465 kts | 295° |
| 2026-04-28 21:16 | 38.94131 | 1.46173 | 33919 ft | 467 kts | 296° |
| 2026-04-28 21:17 | 38.96996 | 1.38675 | 33918 ft | 469 kts | 296° |
| 2026-04-28 21:17 | 38.99868 | 1.31129 | 33922 ft | 470 kts | 296° |
| 2026-04-28 21:18 | 39.02731 | 1.23565 | 33925 ft | 471 kts | 296° |
| 2026-04-28 21:18 | 39.05582 | 1.16036 | 33925 ft | 472 kts | 296° |
| 2026-04-28 21:19 | 39.08449 | 1.08439 | 33932 ft | 471 kts | 296° |
| 2026-04-28 21:19 | 39.11312 | 1.00835 | 33933 ft | 472 kts | 296° |
| 2026-04-28 21:20 | 39.14156 | 0.93224 | 33939 ft | 472 kts | 293° |
| 2026-04-28 21:20 | 39.15109 | 0.89195 | 33934 ft | 471 kts | 278° |
| 2026-04-28 21:20 | 39.15507 | 0.85010 | 33931 ft | 471 kts | 276° |
| 2026-04-28 21:21 | 39.16201 | 0.76601 | 33931 ft | 472 kts | 275° |
| 2026-04-28 21:21 | 39.16864 | 0.68187 | 33948 ft | 471 kts | 275° |
| 2026-04-28 21:22 | 39.17535 | 0.59790 | 33956 ft | 470 kts | 276° |
| 2026-04-28 21:22 | 39.18091 | 0.52819 | 33958 ft | 470 kts | 276° |
| 2026-04-28 21:23 | 39.18869 | 0.43038 | 33957 ft | 469 kts | 275° |
| 2026-04-28 21:23 | 39.19533 | 0.34676 | 33958 ft | 468 kts | 276° |
| 2026-04-28 21:24 | 39.20181 | 0.26342 | 33976 ft | 466 kts | 275° |
| 2026-04-28 21:24 | 39.20812 | 0.18032 | 33978 ft | 465 kts | 275° |
| 2026-04-28 21:25 | 39.21437 | 0.09804 | 33972 ft | 464 kts | 275° |
| 2026-04-28 21:25 | 39.22063 | 0.01524 | 33965 ft | 463 kts | 275° |
| 2026-04-28 21:26 | 39.22681 | -0.06749 | 33967 ft | 462 kts | 275° |
| 2026-04-28 21:26 | 39.23290 | -0.15007 | 33969 ft | 461 kts | 275° |
| 2026-04-28 21:27 | 39.23886 | -0.23240 | 33963 ft | 461 kts | 275° |
| 2026-04-28 21:27 | 39.24378 | -0.30095 | 33958 ft | 460 kts | 275° |
| 2026-04-28 21:28 | 39.24973 | -0.38320 | 33957 ft | 460 kts | 275° |
| 2026-04-28 21:28 | 39.25566 | -0.46548 | 33952 ft | 460 kts | 275° |
| 2026-04-28 21:29 | 39.26141 | -0.54721 | 33948 ft | 460 kts | 275° |
| 2026-04-28 21:29 | 39.26712 | -0.62948 | 33952 ft | 460 kts | 275° |
| 2026-04-28 21:30 | 39.27282 | -0.71178 | 33949 ft | 460 kts | 275° |
| 2026-04-28 21:30 | 39.27848 | -0.79412 | 33959 ft | 460 kts | 275° |
| 2026-04-28 21:31 | 39.28396 | -0.87567 | 33979 ft | 458 kts | 275° |
| 2026-04-28 21:31 | 39.28943 | -0.95756 | 33981 ft | 457 kts | 275° |
| 2026-04-28 21:32 | 39.29489 | -1.03923 | 33978 ft | 456 kts | 275° |
| 2026-04-28 21:32 | 39.30020 | -1.12092 | 33974 ft | 456 kts | 275° |
| 2026-04-28 21:33 | 39.30549 | -1.20270 | 33977 ft | 455 kts | 275° |
| 2026-04-28 21:33 | 39.31069 | -1.28376 | 33977 ft | 455 kts | 275° |
| 2026-04-28 21:34 | 39.31588 | -1.36512 | 33977 ft | 454 kts | 275° |
| 2026-04-28 21:34 | 39.32097 | -1.44650 | 33968 ft | 454 kts | 274° |
| 2026-04-28 21:35 | 39.32604 | -1.52794 | 33966 ft | 454 kts | 274° |
| 2026-04-28 21:35 | 39.33102 | -1.60869 | 33971 ft | 453 kts | 274° |
| 2026-04-28 21:36 | 39.33598 | -1.68981 | 33975 ft | 453 kts | 274° |
| 2026-04-28 21:36 | 39.34083 | -1.77085 | 33977 ft | 452 kts | 274° |
| 2026-04-28 21:37 | 39.34552 | -1.85178 | 33973 ft | 451 kts | 274° |
| 2026-04-28 21:37 | 39.35020 | -1.93258 | 33977 ft | 451 kts | 273° |
| 2026-04-28 21:38 | 39.35485 | -2.01336 | 33974 ft | 450 kts | 273° |
| 2026-04-28 21:38 | 39.35949 | -2.09403 | 33971 ft | 449 kts | 273° |
| 2026-04-28 21:39 | 39.36397 | -2.17409 | 33965 ft | 449 kts | 273° |
| 2026-04-28 21:39 | 39.36847 | -2.25461 | 33961 ft | 449 kts | 273° |
| 2026-04-28 21:40 | 39.37290 | -2.33507 | 33954 ft | 449 kts | 273° |
| 2026-04-28 21:40 | 39.37728 | -2.41557 | 33952 ft | 448 kts | 273° |
| 2026-04-28 21:41 | 39.38167 | -2.49598 | 33949 ft | 448 kts | 272° |
| 2026-04-28 21:41 | 39.38597 | -2.57643 | 33947 ft | 448 kts | 272° |
| 2026-04-28 21:42 | 39.39010 | -2.65635 | 33938 ft | 448 kts | 272° |
| 2026-04-28 21:42 | 39.39420 | -2.73689 | 33937 ft | 448 kts | 272° |
| 2026-04-28 21:43 | 39.39833 | -2.81747 | 33922 ft | 449 kts | 272° |
| 2026-04-28 21:43 | 39.40240 | -2.89804 | 33921 ft | 449 kts | 272° |
| 2026-04-28 21:44 | 39.40636 | -2.97863 | 33918 ft | 449 kts | 272° |
| 2026-04-28 21:44 | 39.41025 | -3.05940 | 33924 ft | 449 kts | 272° |
| 2026-04-28 21:45 | 39.41409 | -3.13960 | 33912 ft | 450 kts | 272° |
| 2026-04-28 21:45 | 39.41792 | -3.22038 | 33908 ft | 451 kts | 272° |
| 2026-04-28 21:46 | 39.42171 | -3.30151 | 33913 ft | 451 kts | 272° |
| 2026-04-28 21:46 | 39.42542 | -3.38284 | 33916 ft | 452 kts | 272° |
| 2026-04-28 21:47 | 39.42908 | -3.46397 | 33918 ft | 452 kts | 271° |
| 2026-04-28 21:47 | 39.43272 | -3.54478 | 33913 ft | 453 kts | 271° |
| 2026-04-28 21:48 | 39.43628 | -3.62615 | 33907 ft | 453 kts | 271° |
| 2026-04-28 21:48 | 39.43977 | -3.70772 | 33905 ft | 454 kts | 271° |
| 2026-04-28 21:49 | 39.44327 | -3.78935 | 33909 ft | 454 kts | 271° |
| 2026-04-28 21:49 | 39.44666 | -3.87082 | 33921 ft | 454 kts | 271° |
| 2026-04-28 21:50 | 39.45004 | -3.95237 | 33926 ft | 454 kts | 271° |
| 2026-04-28 21:50 | 39.45320 | -4.03345 | 33927 ft | 453 kts | 269° |
| 2026-04-28 21:51 | 39.44711 | -4.11423 | 33923 ft | 450 kts | 261° |
| 2026-04-28 21:51 | 39.43911 | -4.19468 | 33921 ft | 450 kts | 261° |
| 2026-04-28 21:52 | 39.43105 | -4.27511 | 33925 ft | 450 kts | 261° |
| 2026-04-28 21:52 | 39.42308 | -4.35492 | 33923 ft | 450 kts | 261° |
| 2026-04-28 21:53 | 39.41502 | -4.43525 | 33917 ft | 450 kts | 261° |
| 2026-04-28 21:53 | 39.40685 | -4.51557 | 33917 ft | 450 kts | 261° |
| 2026-04-28 21:54 | 39.39865 | -4.59582 | 33913 ft | 450 kts | 261° |
| 2026-04-28 21:54 | 39.39041 | -4.67616 | 33912 ft | 450 kts | 261° |
| 2026-04-28 21:55 | 39.38214 | -4.75605 | 33917 ft | 451 kts | 260° |
| 2026-04-28 21:55 | 39.37369 | -4.83645 | 33917 ft | 451 kts | 260° |
| 2026-04-28 21:56 | 39.36524 | -4.91698 | 33912 ft | 451 kts | 260° |
| 2026-04-28 21:56 | 39.35675 | -4.99734 | 33911 ft | 452 kts | 260° |
| 2026-04-28 21:57 | 39.34819 | -5.07794 | 33895 ft | 453 kts | 260° |
| 2026-04-28 21:57 | 39.33960 | -5.15821 | 33902 ft | 454 kts | 260° |
| 2026-04-28 21:58 | 39.33090 | -5.23892 | 33902 ft | 454 kts | 260° |
| 2026-04-28 21:58 | 39.32212 | -5.31967 | 33902 ft | 454 kts | 260° |
| 2026-04-28 21:59 | 39.31334 | -5.40047 | 33898 ft | 455 kts | 259° |
| 2026-04-28 22:00 | 39.29991 | -5.52227 | 33895 ft | 456 kts | 259° |
| 2026-04-28 22:00 | 39.29091 | -5.60280 | 33890 ft | 457 kts | 259° |
| 2026-04-28 22:01 | 39.28181 | -5.68408 | 33893 ft | 457 kts | 259° |
| 2026-04-28 22:01 | 39.27273 | -5.76529 | 33896 ft | 458 kts | 258° |
| 2026-04-28 22:02 | 39.26350 | -5.84678 | 33887 ft | 459 kts | 258° |
| 2026-04-28 22:02 | 39.25415 | -5.92835 | 33883 ft | 459 kts | 258° |
| 2026-04-28 22:03 | 39.24479 | -6.00992 | 33883 ft | 460 kts | 258° |
| 2026-04-28 22:03 | 39.23542 | -6.09159 | 33899 ft | 460 kts | 258° |
| 2026-04-28 22:04 | 39.22600 | -6.17270 | 33891 ft | 460 kts | 258° |
| 2026-04-28 22:04 | 39.21643 | -6.25425 | 33902 ft | 460 kts | 258° |
| 2026-04-28 22:05 | 39.20679 | -6.33592 | 33897 ft | 460 kts | 258° |
| 2026-04-28 22:05 | 39.19715 | -6.41738 | 33899 ft | 460 kts | 258° |
| 2026-04-28 22:06 | 39.18747 | -6.49881 | 33919 ft | 460 kts | 258° |
| 2026-04-28 22:06 | 39.17778 | -6.58031 | 33905 ft | 460 kts | 258° |
| 2026-04-28 22:07 | 39.16795 | -6.66183 | 33898 ft | 460 kts | 258° |
| 2026-04-28 22:07 | 39.15801 | -6.74329 | 33891 ft | 460 kts | 258° |
| 2026-04-28 22:08 | 39.14817 | -6.82431 | 33895 ft | 460 kts | 257° |
| 2026-04-28 22:08 | 39.13817 | -6.90566 | 33916 ft | 460 kts | 257° |
| 2026-04-28 22:09 | 39.12809 | -6.98710 | 33903 ft | 460 kts | 257° |
| 2026-04-28 22:09 | 39.11792 | -7.06856 | 33897 ft | 460 kts | 257° |
| 2026-04-28 22:10 | 39.10773 | -7.14988 | 33917 ft | 458 kts | 257° |
| 2026-04-28 22:10 | 39.10267 | -7.19029 | 33519 ft | 457 kts | 257° |
| 2026-04-28 22:10 | 39.09763 | -7.23056 | 32420 ft | 464 kts | 257° |
| 2026-04-28 22:10 | 39.09252 | -7.27142 | 31294 ft | 460 kts | 257° |
| 2026-04-28 22:11 | 39.08741 | -7.31210 | 30135 ft | 459 kts | 257° |
| 2026-04-28 22:11 | 39.08222 | -7.35301 | 28953 ft | 464 kts | 257° |
| 2026-04-28 22:11 | 39.07696 | -7.39411 | 27895 ft | 466 kts | 257° |
| 2026-04-28 22:11 | 39.07165 | -7.43539 | 26707 ft | 470 kts | 257° |
| 2026-04-28 22:12 | 39.06628 | -7.47706 | 25490 ft | 475 kts | 258° |
| 2026-04-28 22:12 | 39.06095 | -7.51865 | 25003 ft | 463 kts | 258° |
| 2026-04-28 22:12 | 39.05582 | -7.55870 | 24874 ft | 444 kts | 257° |
| 2026-04-28 22:12 | 39.05097 | -7.59664 | 24758 ft | 427 kts | 257° |
| 2026-04-28 22:13 | 39.04556 | -7.63338 | 24643 ft | 408 kts | 251° |
| 2026-04-28 22:13 | 39.03605 | -7.66688 | 24422 ft | 392 kts | 241° |
| 2026-04-28 22:13 | 39.02280 | -7.69694 | 24203 ft | 383 kts | 236° |
| 2026-04-28 22:13 | 39.00903 | -7.72619 | 23859 ft | 381 kts | 236° |
| 2026-04-28 22:14 | 38.99535 | -7.75534 | 23448 ft | 378 kts | 236° |
| 2026-04-28 22:14 | 38.98183 | -7.78420 | 23007 ft | 375 kts | 237° |
| 2026-04-28 22:14 | 38.97293 | -7.80325 | 22743 ft | 374 kts | 237° |
| 2026-04-28 22:14 | 38.95504 | -7.84152 | 22210 ft | 372 kts | 237° |
| 2026-04-28 22:15 | 38.94175 | -7.86994 | 21821 ft | 371 kts | 237° |
| 2026-04-28 22:15 | 38.93295 | -7.88874 | 21555 ft | 370 kts | 237° |
| 2026-04-28 22:15 | 38.91970 | -7.91694 | 21162 ft | 368 kts | 237° |
| 2026-04-28 22:15 | 38.90648 | -7.94502 | 20771 ft | 366 kts | 237° |
| 2026-04-28 22:16 | 38.89336 | -7.97293 | 20385 ft | 365 kts | 237° |
| 2026-04-28 22:16 | 38.88025 | -8.00078 | 19986 ft | 364 kts | 237° |
| 2026-04-28 22:16 | 38.86718 | -8.02848 | 19608 ft | 362 kts | 237° |
| 2026-04-28 22:16 | 38.85415 | -8.05606 | 19221 ft | 361 kts | 237° |
| 2026-04-28 22:17 | 38.84115 | -8.08351 | 18841 ft | 359 kts | 237° |
| 2026-04-28 22:17 | 38.82820 | -8.11083 | 18461 ft | 358 kts | 238° |
| 2026-04-28 22:17 | 38.81530 | -8.13806 | 18065 ft | 357 kts | 238° |
| 2026-04-28 22:17 | 38.80245 | -8.16525 | 17661 ft | 355 kts | 238° |
| 2026-04-28 22:18 | 38.78966 | -8.19231 | 17280 ft | 353 kts | 238° |
| 2026-04-28 22:18 | 38.77695 | -8.21918 | 16905 ft | 351 kts | 238° |
| 2026-04-28 22:18 | 38.76432 | -8.24586 | 16535 ft | 349 kts | 238° |
| 2026-04-28 22:18 | 38.75188 | -8.27209 | 16168 ft | 347 kts | 238° |
| 2026-04-28 22:19 | 38.73936 | -8.29841 | 15801 ft | 345 kts | 238° |
| 2026-04-28 22:19 | 38.72690 | -8.32460 | 15432 ft | 343 kts | 238° |
| 2026-04-28 22:19 | 38.71445 | -8.35069 | 15070 ft | 341 kts | 237° |
| 2026-04-28 22:19 | 38.70210 | -8.37662 | 14701 ft | 340 kts | 237° |
| 2026-04-28 22:20 | 38.68979 | -8.40248 | 14343 ft | 339 kts | 237° |
| 2026-04-28 22:20 | 38.67753 | -8.42819 | 13985 ft | 337 kts | 237° |
| 2026-04-28 22:20 | 38.66535 | -8.45374 | 13614 ft | 336 kts | 237° |
| 2026-04-28 22:20 | 38.65320 | -8.47917 | 13237 ft | 334 kts | 237° |
| 2026-04-28 22:21 | 38.64109 | -8.50445 | 12878 ft | 333 kts | 237° |
| 2026-04-28 22:21 | 38.62900 | -8.52963 | 12528 ft | 331 kts | 238° |
| 2026-04-28 22:21 | 38.61711 | -8.55439 | 12176 ft | 330 kts | 238° |
| 2026-04-28 22:21 | 38.60498 | -8.57970 | 11840 ft | 329 kts | 238° |
| 2026-04-28 22:22 | 38.59321 | -8.60422 | 11484 ft | 326 kts | 238° |
| 2026-04-28 22:22 | 38.58133 | -8.62892 | 11127 ft | 325 kts | 238° |
| 2026-04-28 22:22 | 38.56949 | -8.65354 | 10790 ft | 324 kts | 238° |
| 2026-04-28 22:22 | 38.55772 | -8.67803 | 10443 ft | 322 kts | 238° |
| 2026-04-28 22:23 | 38.54607 | -8.70223 | 10216 ft | 315 kts | 238° |
| 2026-04-28 22:23 | 38.53480 | -8.72561 | 10097 ft | 303 kts | 238° |
| 2026-04-28 22:23 | 38.52394 | -8.74811 | 9973 ft | 293 kts | 238° |
| 2026-04-28 22:23 | 38.51336 | -8.77004 | 9750 ft | 287 kts | 239° |
| 2026-04-28 22:24 | 38.50295 | -8.79162 | 9490 ft | 284 kts | 239° |
| 2026-04-28 22:24 | 38.49262 | -8.81304 | 9154 ft | 282 kts | 239° |
| 2026-04-28 22:24 | 38.48236 | -8.83431 | 8793 ft | 281 kts | 239° |
| 2026-04-28 22:24 | 38.47213 | -8.85549 | 8456 ft | 280 kts | 239° |
| 2026-04-28 22:25 | 38.46193 | -8.87657 | 8174 ft | 277 kts | 238° |
| 2026-04-28 22:25 | 38.45177 | -8.89751 | 8027 ft | 279 kts | 238° |
| 2026-04-28 22:25 | 38.44160 | -8.91844 | 7425 ft | 279 kts | 238° |
| 2026-04-28 22:25 | 38.43147 | -8.93927 | 6927 ft | 274 kts | 238° |
| 2026-04-28 22:26 | 38.42258 | -8.96081 | 6596 ft | 274 kts | 251° |
| 2026-04-28 22:26 | 38.41936 | -8.98462 | 6301 ft | 274 kts | 270° |
| 2026-04-28 22:26 | 38.42235 | -9.00845 | 5992 ft | 273 kts | 289° |
| 2026-04-28 22:26 | 38.43116 | -9.02979 | 5682 ft | 273 kts | 307° |
| 2026-04-28 22:27 | 38.44423 | -9.04740 | 5395 ft | 274 kts | 315° |
| 2026-04-28 22:27 | 38.45774 | -9.06451 | 5096 ft | 273 kts | 314° |
| 2026-04-28 22:27 | 38.47122 | -9.08166 | 4798 ft | 273 kts | 314° |
| 2026-04-28 22:27 | 38.48443 | -9.09849 | 4599 ft | 271 kts | 314° |
| 2026-04-28 22:28 | 38.49778 | -9.11554 | 4491 ft | 271 kts | 314° |
| 2026-04-28 22:28 | 38.51106 | -9.13255 | 4360 ft | 267 kts | 314° |
| 2026-04-28 22:28 | 38.52384 | -9.14894 | 4296 ft | 252 kts | 314° |
| 2026-04-28 22:28 | 38.53588 | -9.16442 | 4232 ft | 240 kts | 314° |
| 2026-04-28 22:29 | 38.54760 | -9.17948 | 4144 ft | 238 kts | 314° |
| 2026-04-28 22:29 | 38.55927 | -9.19447 | 4032 ft | 237 kts | 314° |
| 2026-04-28 22:29 | 38.57091 | -9.20940 | 3925 ft | 237 kts | 314° |
| 2026-04-28 22:29 | 38.58297 | -9.22369 | 3809 ft | 237 kts | 327° |
| 2026-04-28 22:30 | 38.59838 | -9.23010 | 3724 ft | 236 kts | 359° |
| 2026-04-28 22:30 | 38.61429 | -9.22544 | 3537 ft | 236 kts | 22° |
| 2026-04-28 22:30 | 38.62936 | -9.21723 | 3250 ft | 235 kts | 23° |
| 2026-04-28 22:30 | 38.64444 | -9.20899 | 2939 ft | 236 kts | 23° |
| 2026-04-28 22:31 | 38.65949 | -9.20094 | 2623 ft | 231 kts | 22° |
| 2026-04-28 22:31 | 38.67395 | -9.19324 | 2336 ft | 220 kts | 22° |
| 2026-04-28 22:31 | 38.68770 | -9.18592 | 2038 ft | 208 kts | 21° |
| 2026-04-28 22:31 | 38.69862 | -9.18021 | 1762 ft | 198 kts | 21° |
| 2026-04-28 22:32 | 38.71043 | -9.17362 | 1608 ft | 173 kts | 21° |
| 2026-04-28 22:32 | 38.72087 | -9.16792 | 1375 ft | 157 kts | 19° |
| 2026-04-28 22:32 | 38.73082 | -9.16275 | 1058 ft | 151 kts | 20° |
| 2026-04-28 22:32 | 38.74023 | -9.15767 | 909 ft | 146 kts | 19° |
| 2026-04-28 22:33 | 38.74950 | -9.15294 | 734 ft | 144 kts | 17° |
| 2026-04-28 22:33 | 38.75880 | -9.14780 | 552 ft | 144 kts | 21° |
| 2026-04-28 22:33 | 38.76785 | -9.14312 | 375 ft | 142 kts | 20° |
| 2026-04-28 22:33 | 38.77626 | -9.13865 | 360 ft | 108 kts | 22° |
| 2026-04-28 22:34 | 38.78045 | -9.13638 | 360 ft | 38 kts | 22° |
| 2026-04-28 22:34 | 38.78269 | -9.13489 | 358 ft | 36 kts | 39° |
| 2026-04-28 22:34 | 38.78371 | -9.13290 | 359 ft | 19 kts | 114° |
| 2026-04-28 22:34 | 38.78315 | -9.13270 | 354 ft | 7 kts | 206° |
| 2026-04-28 22:35 | 38.78159 | -9.13350 | 356 ft | 43 kts | 201° |
| 2026-04-28 22:35 | 38.77954 | -9.13400 | 352 ft | 28 kts | 169° |
| 2026-04-28 22:35 | 38.77824 | -9.13364 | 352 ft | 14 kts | 168° |
| 2026-04-28 22:35 | 38.77743 | -9.13325 | 356 ft | 12 kts | 126° |
| 2026-04-28 22:36 | 38.77748 | -9.13228 | 351 ft | 15 kts | 78° |
| 2026-04-28 22:36 | 38.77757 | -9.13096 | 351 ft | 5 kts | 155° |
| 2026-04-28 22:36 | 38.77729 | -9.13099 | 351 ft | 3 kts | 198° |
| 2026-04-28 22:36 | 38.77698 | -9.13105 | 356 ft | 5 kts | 184° |
| 2026-04-28 22:37 | 38.77690 | -9.13105 | 358 ft | 1 kts | 182° |
| 2026-04-28 22:37 | 38.77685 | -9.13106 | 358 ft | 0 kts | 187° |
| 2026-04-28 22:37 | 38.77684 | -9.13106 | 358 ft | 0 kts | 187° |
| 2026-04-28 22:46 | 38.76533 | -9.13373 | 354 ft | 0 kts | 73° |